sensor_id;sensor_type;location;lat;lon;timestamp;P1;durP1;ratioP1;P2;durP2;ratioP2
75054;SDS011;63636;44.746;10.488;2023-05-10T00:01:42;10.60;;;5.68;;
75054;SDS011;63636;44.746;10.488;2023-05-10T00:04:10;8.35;;;5.30;;
75054;SDS011;63636;44.746;10.488;2023-05-10T00:06:38;8.77;;;5.60;;
75054;SDS011;63636;44.746;10.488;2023-05-10T00:09:05;8.45;;;5.20;;
75054;SDS011;63636;44.746;10.488;2023-05-10T00:11:33;10.50;;;5.85;;
75054;SDS011;63636;44.746;10.488;2023-05-10T00:14:02;12.52;;;5.82;;
75054;SDS011;63636;44.746;10.488;2023-05-10T00:16:29;8.60;;;5.57;;
75054;SDS011;63636;44.746;10.488;2023-05-10T00:18:57;8.27;;;5.60;;
75054;SDS011;63636;44.746;10.488;2023-05-10T00:21:24;8.93;;;5.20;;
75054;SDS011;63636;44.746;10.488;2023-05-10T00:23:53;8.50;;;5.38;;
75054;SDS011;63636;44.746;10.488;2023-05-10T00:26:20;9.80;;;5.35;;
75054;SDS011;63636;44.746;10.488;2023-05-10T00:28:52;8.68;;;5.53;;
75054;SDS011;63636;44.746;10.488;2023-05-10T00:31:19;10.80;;;5.57;;
75054;SDS011;63636;44.746;10.488;2023-05-10T00:33:48;9.55;;;5.30;;
75054;SDS011;63636;44.746;10.488;2023-05-10T00:36:14;10.63;;;5.75;;
75054;SDS011;63636;44.746;10.488;2023-05-10T00:38:43;10.13;;;5.93;;
75054;SDS011;63636;44.746;10.488;2023-05-10T00:41:12;9.82;;;5.57;;
75054;SDS011;63636;44.746;10.488;2023-05-10T00:43:41;8.75;;;5.60;;
75054;SDS011;63636;44.746;10.488;2023-05-10T00:46:08;9.90;;;5.18;;
75054;SDS011;63636;44.746;10.488;2023-05-10T00:48:36;10.57;;;5.40;;
75054;SDS011;63636;44.746;10.488;2023-05-10T00:51:02;8.32;;;5.43;;
75054;SDS011;63636;44.746;10.488;2023-05-10T00:53:28;9.45;;;5.80;;
75054;SDS011;63636;44.746;10.488;2023-05-10T00:55:56;10.68;;;5.65;;
75054;SDS011;63636;44.746;10.488;2023-05-10T00:58:21;10.38;;;5.97;;
75054;SDS011;63636;44.746;10.488;2023-05-10T01:00:49;9.93;;;5.90;;
75054;SDS011;63636;44.746;10.488;2023-05-10T01:03:14;11.27;;;6.20;;
75054;SDS011;63636;44.746;10.488;2023-05-10T01:05:40;9.90;;;5.82;;
75054;SDS011;63636;44.746;10.488;2023-05-10T01:08:06;8.32;;;5.90;;
75054;SDS011;63636;44.746;10.488;2023-05-10T01:10:32;11.00;;;6.90;;
75054;SDS011;63636;44.746;10.488;2023-05-10T01:12:57;9.65;;;6.53;;
75054;SDS011;63636;44.746;10.488;2023-05-10T01:15:24;9.55;;;6.82;;
75054;SDS011;63636;44.746;10.488;2023-05-10T01:17:49;10.38;;;6.68;;
75054;SDS011;63636;44.746;10.488;2023-05-10T01:20:16;8.90;;;6.40;;
75054;SDS011;63636;44.746;10.488;2023-05-10T01:36:11;10.75;;;7.00;;
75054;SDS011;63636;44.746;10.488;2023-05-10T01:38:49;10.68;;;7.13;;
75054;SDS011;63636;44.746;10.488;2023-05-10T01:43:48;11.77;;;7.13;;
75054;SDS011;63636;44.746;10.488;2023-05-10T01:46:40;10.65;;;7.05;;
75054;SDS011;63636;44.746;10.488;2023-05-10T01:49:08;10.35;;;6.68;;
75054;SDS011;63636;44.746;10.488;2023-05-10T01:51:39;11.10;;;7.28;;
75054;SDS011;63636;44.746;10.488;2023-05-10T01:54:07;9.80;;;7.30;;
75054;SDS011;63636;44.746;10.488;2023-05-10T01:56:34;12.00;;;7.30;;
75054;SDS011;63636;44.746;10.488;2023-05-10T01:59:01;8.68;;;6.13;;
75054;SDS011;63636;44.746;10.488;2023-05-10T02:01:30;9.65;;;6.78;;
75054;SDS011;63636;44.746;10.488;2023-05-10T02:03:56;9.27;;;6.53;;
75054;SDS011;63636;44.746;10.488;2023-05-10T02:06:23;8.27;;;5.85;;
75054;SDS011;63636;44.746;10.488;2023-05-10T02:08:50;8.55;;;5.70;;
75054;SDS011;63636;44.746;10.488;2023-05-10T02:11:17;8.60;;;5.20;;
75054;SDS011;63636;44.746;10.488;2023-05-10T02:13:43;8.20;;;5.07;;
75054;SDS011;63636;44.746;10.488;2023-05-10T02:16:10;8.65;;;5.65;;
75054;SDS011;63636;44.746;10.488;2023-05-10T02:18:37;9.00;;;5.47;;
75054;SDS011;63636;44.746;10.488;2023-05-10T02:21:04;7.82;;;5.38;;
75054;SDS011;63636;44.746;10.488;2023-05-10T02:23:30;8.10;;;5.00;;
75054;SDS011;63636;44.746;10.488;2023-05-10T02:25:56;8.85;;;5.60;;
75054;SDS011;63636;44.746;10.488;2023-05-10T02:28:23;8.60;;;5.05;;
75054;SDS011;63636;44.746;10.488;2023-05-10T02:30:48;8.48;;;4.88;;
75054;SDS011;63636;44.746;10.488;2023-05-10T02:33:16;8.05;;;5.13;;
75054;SDS011;63636;44.746;10.488;2023-05-10T02:35:42;7.95;;;5.25;;
75054;SDS011;63636;44.746;10.488;2023-05-10T02:38:07;7.22;;;4.85;;
75054;SDS011;63636;44.746;10.488;2023-05-10T02:40:34;7.18;;;4.50;;
75054;SDS011;63636;44.746;10.488;2023-05-10T02:43:01;7.65;;;4.68;;
75054;SDS011;63636;44.746;10.488;2023-05-10T02:45:28;7.10;;;4.70;;
75054;SDS011;63636;44.746;10.488;2023-05-10T02:47:55;7.50;;;4.63;;
75054;SDS011;63636;44.746;10.488;2023-05-10T02:50:21;6.95;;;4.40;;
75054;SDS011;63636;44.746;10.488;2023-05-10T02:52:49;7.22;;;4.35;;
75054;SDS011;63636;44.746;10.488;2023-05-10T02:55:17;8.85;;;4.30;;
75054;SDS011;63636;44.746;10.488;2023-05-10T02:57:46;6.65;;;4.03;;
75054;SDS011;63636;44.746;10.488;2023-05-10T03:00:14;6.93;;;3.95;;
75054;SDS011;63636;44.746;10.488;2023-05-10T03:02:39;6.43;;;4.25;;
75054;SDS011;63636;44.746;10.488;2023-05-10T03:05:06;6.60;;;4.30;;
75054;SDS011;63636;44.746;10.488;2023-05-10T03:07:32;7.03;;;4.35;;
75054;SDS011;63636;44.746;10.488;2023-05-10T03:09:58;7.07;;;4.20;;
75054;SDS011;63636;44.746;10.488;2023-05-10T03:12:38;6.63;;;4.50;;
75054;SDS011;63636;44.746;10.488;2023-05-10T03:15:10;8.13;;;4.50;;
75054;SDS011;63636;44.746;10.488;2023-05-10T03:20:12;7.13;;;4.18;;
75054;SDS011;63636;44.746;10.488;2023-05-10T03:22:44;8.02;;;5.00;;
75054;SDS011;63636;44.746;10.488;2023-05-10T03:25:10;7.65;;;4.85;;
75054;SDS011;63636;44.746;10.488;2023-05-10T03:27:39;5.93;;;3.97;;
75054;SDS011;63636;44.746;10.488;2023-05-10T03:30:06;6.85;;;4.22;;
75054;SDS011;63636;44.746;10.488;2023-05-10T03:32:33;7.10;;;4.65;;
75054;SDS011;63636;44.746;10.488;2023-05-10T03:35:00;6.35;;;4.10;;
75054;SDS011;63636;44.746;10.488;2023-05-10T03:37:27;7.00;;;4.28;;
75054;SDS011;63636;44.746;10.488;2023-05-10T03:39:53;7.50;;;4.18;;
75054;SDS011;63636;44.746;10.488;2023-05-10T03:42:18;8.80;;;4.43;;
75054;SDS011;63636;44.746;10.488;2023-05-10T03:44:44;7.38;;;4.00;;
75054;SDS011;63636;44.746;10.488;2023-05-10T03:47:09;7.30;;;4.10;;
75054;SDS011;63636;44.746;10.488;2023-05-10T03:49:35;7.10;;;4.03;;
75054;SDS011;63636;44.746;10.488;2023-05-10T03:52:01;7.05;;;3.60;;
75054;SDS011;63636;44.746;10.488;2023-05-10T03:54:27;7.82;;;4.00;;
75054;SDS011;63636;44.746;10.488;2023-05-10T03:56:52;7.60;;;3.92;;
75054;SDS011;63636;44.746;10.488;2023-05-10T03:59:19;7.18;;;4.28;;
75054;SDS011;63636;44.746;10.488;2023-05-10T04:01:45;7.20;;;4.40;;
75054;SDS011;63636;44.746;10.488;2023-05-10T04:04:11;7.22;;;4.05;;
75054;SDS011;63636;44.746;10.488;2023-05-10T04:06:37;6.60;;;4.10;;
75054;SDS011;63636;44.746;10.488;2023-05-10T04:09:03;6.63;;;4.28;;
75054;SDS011;63636;44.746;10.488;2023-05-10T04:11:29;6.63;;;3.92;;
75054;SDS011;63636;44.746;10.488;2023-05-10T04:13:55;7.20;;;3.85;;
75054;SDS011;63636;44.746;10.488;2023-05-10T04:16:20;7.63;;;4.55;;
75054;SDS011;63636;44.746;10.488;2023-05-10T04:18:46;6.63;;;4.13;;
75054;SDS011;63636;44.746;10.488;2023-05-10T04:21:12;6.97;;;4.00;;
75054;SDS011;63636;44.746;10.488;2023-05-10T04:23:38;6.40;;;4.13;;
75054;SDS011;63636;44.746;10.488;2023-05-10T04:26:04;6.10;;;3.90;;
75054;SDS011;63636;44.746;10.488;2023-05-10T04:28:30;6.80;;;4.03;;
75054;SDS011;63636;44.746;10.488;2023-05-10T04:31:05;6.90;;;4.07;;
75054;SDS011;63636;44.746;10.488;2023-05-10T04:33:31;6.70;;;3.88;;
75054;SDS011;63636;44.746;10.488;2023-05-10T04:35:56;6.57;;;4.00;;
75054;SDS011;63636;44.746;10.488;2023-05-10T04:38:22;6.53;;;4.28;;
75054;SDS011;63636;44.746;10.488;2023-05-10T04:40:47;7.90;;;4.40;;
75054;SDS011;63636;44.746;10.488;2023-05-10T04:43:13;7.43;;;4.43;;
75054;SDS011;63636;44.746;10.488;2023-05-10T04:45:39;6.90;;;4.25;;
75054;SDS011;63636;44.746;10.488;2023-05-10T04:48:04;7.15;;;4.43;;
75054;SDS011;63636;44.746;10.488;2023-05-10T04:50:30;7.63;;;4.78;;
75054;SDS011;63636;44.746;10.488;2023-05-10T04:52:56;6.90;;;4.28;;
75054;SDS011;63636;44.746;10.488;2023-05-10T04:55:23;7.22;;;4.45;;
75054;SDS011;63636;44.746;10.488;2023-05-10T04:57:48;6.50;;;4.10;;
75054;SDS011;63636;44.746;10.488;2023-05-10T05:00:14;7.75;;;4.55;;
75054;SDS011;63636;44.746;10.488;2023-05-10T05:02:43;7.05;;;4.22;;
75054;SDS011;63636;44.746;10.488;2023-05-10T05:05:12;8.02;;;4.80;;
75054;SDS011;63636;44.746;10.488;2023-05-10T05:07:37;7.22;;;4.47;;
75054;SDS011;63636;44.746;10.488;2023-05-10T05:10:04;8.02;;;4.90;;
75054;SDS011;63636;44.746;10.488;2023-05-10T05:12:30;7.35;;;4.85;;
75054;SDS011;63636;44.746;10.488;2023-05-10T05:14:55;7.30;;;4.70;;
75054;SDS011;63636;44.746;10.488;2023-05-10T05:17:21;7.55;;;4.70;;
75054;SDS011;63636;44.746;10.488;2023-05-10T05:19:47;7.80;;;4.75;;
75054;SDS011;63636;44.746;10.488;2023-05-10T05:22:12;6.60;;;4.47;;
75054;SDS011;63636;44.746;10.488;2023-05-10T05:24:38;9.13;;;4.95;;
75054;SDS011;63636;44.746;10.488;2023-05-10T05:27:03;8.18;;;4.70;;
75054;SDS011;63636;44.746;10.488;2023-05-10T05:29:29;7.22;;;4.63;;
75054;SDS011;63636;44.746;10.488;2023-05-10T05:31:55;7.70;;;4.88;;
75054;SDS011;63636;44.746;10.488;2023-05-10T05:34:20;7.07;;;4.40;;
75054;SDS011;63636;44.746;10.488;2023-05-10T05:36:47;7.53;;;4.55;;
75054;SDS011;63636;44.746;10.488;2023-05-10T05:39:12;6.70;;;4.10;;
75054;SDS011;63636;44.746;10.488;2023-05-10T05:41:38;7.78;;;4.70;;
75054;SDS011;63636;44.746;10.488;2023-05-10T05:44:03;6.78;;;4.40;;
75054;SDS011;63636;44.746;10.488;2023-05-10T05:46:29;6.38;;;3.92;;
75054;SDS011;63636;44.746;10.488;2023-05-10T05:48:55;6.00;;;4.00;;
75054;SDS011;63636;44.746;10.488;2023-05-10T05:51:21;7.18;;;4.25;;
75054;SDS011;63636;44.746;10.488;2023-05-10T05:53:46;6.78;;;4.15;;
75054;SDS011;63636;44.746;10.488;2023-05-10T05:56:12;7.30;;;4.40;;
75054;SDS011;63636;44.746;10.488;2023-05-10T05:58:37;7.07;;;4.07;;
75054;SDS011;63636;44.746;10.488;2023-05-10T06:01:03;7.25;;;4.50;;
75054;SDS011;63636;44.746;10.488;2023-05-10T06:03:28;8.10;;;4.90;;
75054;SDS011;63636;44.746;10.488;2023-05-10T06:05:54;7.00;;;4.95;;
75054;SDS011;63636;44.746;10.488;2023-05-10T06:08:19;7.78;;;5.03;;
75054;SDS011;63636;44.746;10.488;2023-05-10T06:10:45;7.78;;;5.03;;
75054;SDS011;63636;44.746;10.488;2023-05-10T06:13:11;7.18;;;4.97;;
75054;SDS011;63636;44.746;10.488;2023-05-10T06:15:37;7.60;;;4.75;;
75054;SDS011;63636;44.746;10.488;2023-05-10T06:18:02;7.50;;;4.78;;
75054;SDS011;63636;44.746;10.488;2023-05-10T06:20:28;6.97;;;4.60;;
75054;SDS011;63636;44.746;10.488;2023-05-10T06:22:53;6.47;;;4.30;;
75054;SDS011;63636;44.746;10.488;2023-05-10T06:25:19;8.27;;;4.63;;
75054;SDS011;63636;44.746;10.488;2023-05-10T06:27:45;6.20;;;4.20;;
75054;SDS011;63636;44.746;10.488;2023-05-10T06:30:10;6.70;;;4.15;;
75054;SDS011;63636;44.746;10.488;2023-05-10T06:32:38;7.68;;;4.28;;
75054;SDS011;63636;44.746;10.488;2023-05-10T06:35:04;6.72;;;4.10;;
75054;SDS011;63636;44.746;10.488;2023-05-10T06:37:29;6.22;;;3.88;;
75054;SDS011;63636;44.746;10.488;2023-05-10T06:39:55;5.85;;;3.83;;
75054;SDS011;63636;44.746;10.488;2023-05-10T06:42:20;7.38;;;4.10;;
75054;SDS011;63636;44.746;10.488;2023-05-10T06:44:46;7.05;;;4.30;;
75054;SDS011;63636;44.746;10.488;2023-05-10T06:47:11;7.05;;;3.90;;
75054;SDS011;63636;44.746;10.488;2023-05-10T06:49:37;6.05;;;4.03;;
75054;SDS011;63636;44.746;10.488;2023-05-10T06:52:02;6.47;;;3.88;;
75054;SDS011;63636;44.746;10.488;2023-05-10T06:54:28;6.97;;;4.30;;
75054;SDS011;63636;44.746;10.488;2023-05-10T06:56:53;6.95;;;4.07;;
75054;SDS011;63636;44.746;10.488;2023-05-10T06:59:19;8.27;;;4.47;;
75054;SDS011;63636;44.746;10.488;2023-05-10T07:01:46;6.65;;;4.13;;
75054;SDS011;63636;44.746;10.488;2023-05-10T07:04:12;8.82;;;4.78;;
75054;SDS011;63636;44.746;10.488;2023-05-10T07:06:38;6.47;;;4.20;;
75054;SDS011;63636;44.746;10.488;2023-05-10T07:09:04;6.40;;;4.20;;
75054;SDS011;63636;44.746;10.488;2023-05-10T07:11:29;6.45;;;3.83;;
75054;SDS011;63636;44.746;10.488;2023-05-10T07:13:55;6.65;;;3.85;;
75054;SDS011;63636;44.746;10.488;2023-05-10T07:16:20;6.38;;;3.65;;
75054;SDS011;63636;44.746;10.488;2023-05-10T07:18:46;6.47;;;3.40;;
75054;SDS011;63636;44.746;10.488;2023-05-10T07:21:12;6.15;;;3.42;;
75054;SDS011;63636;44.746;10.488;2023-05-10T07:23:37;5.53;;;3.55;;
75054;SDS011;63636;44.746;10.488;2023-05-10T07:26:03;6.30;;;3.22;;
75054;SDS011;63636;44.746;10.488;2023-05-10T07:28:28;6.20;;;3.63;;
75054;SDS011;63636;44.746;10.488;2023-05-10T07:30:54;6.78;;;3.53;;
75054;SDS011;63636;44.746;10.488;2023-05-10T07:33:20;5.72;;;3.35;;
75054;SDS011;63636;44.746;10.488;2023-05-10T07:35:45;5.78;;;3.50;;
75054;SDS011;63636;44.746;10.488;2023-05-10T07:38:11;5.28;;;3.50;;
75054;SDS011;63636;44.746;10.488;2023-05-10T07:40:37;6.15;;;3.38;;
75054;SDS011;63636;44.746;10.488;2023-05-10T07:43:03;7.80;;;4.18;;
75054;SDS011;63636;44.746;10.488;2023-05-10T07:45:29;8.32;;;3.83;;
75054;SDS011;63636;44.746;10.488;2023-05-10T07:47:54;6.35;;;3.72;;
75054;SDS011;63636;44.746;10.488;2023-05-10T07:50:20;6.53;;;3.90;;
75054;SDS011;63636;44.746;10.488;2023-05-10T07:52:46;7.05;;;3.70;;
75054;SDS011;63636;44.746;10.488;2023-05-10T07:55:12;7.35;;;4.20;;
75054;SDS011;63636;44.746;10.488;2023-05-10T07:57:37;7.10;;;3.75;;
75054;SDS011;63636;44.746;10.488;2023-05-10T08:00:03;6.63;;;3.85;;
75054;SDS011;63636;44.746;10.488;2023-05-10T08:02:38;7.53;;;4.05;;
75054;SDS011;63636;44.746;10.488;2023-05-10T08:05:04;6.28;;;3.90;;
75054;SDS011;63636;44.746;10.488;2023-05-10T08:07:30;5.97;;;3.65;;
75054;SDS011;63636;44.746;10.488;2023-05-10T08:09:56;7.18;;;4.00;;
75054;SDS011;63636;44.746;10.488;2023-05-10T08:12:22;6.80;;;4.13;;
75054;SDS011;63636;44.746;10.488;2023-05-10T08:14:47;6.22;;;3.88;;
75054;SDS011;63636;44.746;10.488;2023-05-10T08:17:13;6.60;;;3.88;;
75054;SDS011;63636;44.746;10.488;2023-05-10T08:19:38;7.40;;;4.00;;
75054;SDS011;63636;44.746;10.488;2023-05-10T08:22:04;8.20;;;4.13;;
75054;SDS011;63636;44.746;10.488;2023-05-10T08:24:30;6.63;;;4.05;;
75054;SDS011;63636;44.746;10.488;2023-05-10T08:26:56;6.65;;;4.03;;
75054;SDS011;63636;44.746;10.488;2023-05-10T08:29:21;6.88;;;3.85;;
75054;SDS011;63636;44.746;10.488;2023-05-10T08:31:47;6.72;;;4.25;;
75054;SDS011;63636;44.746;10.488;2023-05-10T08:34:12;7.05;;;4.03;;
75054;SDS011;63636;44.746;10.488;2023-05-10T08:36:38;7.45;;;3.55;;
75054;SDS011;63636;44.746;10.488;2023-05-10T08:39:03;7.30;;;3.75;;
75054;SDS011;63636;44.746;10.488;2023-05-10T08:41:29;6.95;;;4.13;;
75054;SDS011;63636;44.746;10.488;2023-05-10T08:43:55;5.82;;;3.50;;
75054;SDS011;63636;44.746;10.488;2023-05-10T08:46:21;7.22;;;4.05;;
75054;SDS011;63636;44.746;10.488;2023-05-10T08:48:48;6.10;;;3.70;;
75054;SDS011;63636;44.746;10.488;2023-05-10T08:51:14;8.68;;;4.43;;
75054;SDS011;63636;44.746;10.488;2023-05-10T08:53:40;7.13;;;3.67;;
75054;SDS011;63636;44.746;10.488;2023-05-10T08:56:06;7.55;;;3.50;;
75054;SDS011;63636;44.746;10.488;2023-05-10T08:58:32;6.13;;;3.50;;
75054;SDS011;63636;44.746;10.488;2023-05-10T09:00:57;6.40;;;3.50;;
75054;SDS011;63636;44.746;10.488;2023-05-10T09:03:23;7.38;;;3.80;;
75054;SDS011;63636;44.746;10.488;2023-05-10T09:05:49;6.53;;;3.90;;
75054;SDS011;63636;44.746;10.488;2023-05-10T09:08:14;6.32;;;3.72;;
75054;SDS011;63636;44.746;10.488;2023-05-10T09:10:42;6.50;;;4.00;;
75054;SDS011;63636;44.746;10.488;2023-05-10T09:13:09;6.25;;;3.47;;
75054;SDS011;63636;44.746;10.488;2023-05-10T09:15:35;7.40;;;3.97;;
75054;SDS011;63636;44.746;10.488;2023-05-10T09:18:00;5.90;;;3.40;;
75054;SDS011;63636;44.746;10.488;2023-05-10T09:20:27;6.38;;;3.55;;
75054;SDS011;63636;44.746;10.488;2023-05-10T09:22:53;5.97;;;3.45;;
75054;SDS011;63636;44.746;10.488;2023-05-10T09:25:19;5.80;;;3.30;;
75054;SDS011;63636;44.746;10.488;2023-05-10T09:27:45;5.43;;;3.22;;
75054;SDS011;63636;44.746;10.488;2023-05-10T09:30:19;6.28;;;3.80;;
75054;SDS011;63636;44.746;10.488;2023-05-10T09:32:48;6.30;;;3.65;;
75054;SDS011;63636;44.746;10.488;2023-05-10T09:35:15;6.13;;;3.63;;
75054;SDS011;63636;44.746;10.488;2023-05-10T09:37:41;5.95;;;3.42;;
75054;SDS011;63636;44.746;10.488;2023-05-10T09:40:07;5.50;;;3.35;;
75054;SDS011;63636;44.746;10.488;2023-05-10T09:42:33;6.05;;;3.30;;
75054;SDS011;63636;44.746;10.488;2023-05-10T09:45:03;6.53;;;3.40;;
75054;SDS011;63636;44.746;10.488;2023-05-10T09:47:28;5.72;;;3.70;;
75054;SDS011;63636;44.746;10.488;2023-05-10T09:49:55;6.38;;;3.22;;
75054;SDS011;63636;44.746;10.488;2023-05-10T09:52:28;5.88;;;3.15;;
75054;SDS011;63636;44.746;10.488;2023-05-10T09:54:54;6.57;;;3.70;;
75054;SDS011;63636;44.746;10.488;2023-05-10T09:57:20;5.05;;;3.13;;
75054;SDS011;63636;44.746;10.488;2023-05-10T09:59:47;5.32;;;3.13;;
75054;SDS011;63636;44.746;10.488;2023-05-10T10:02:12;5.28;;;3.33;;
75054;SDS011;63636;44.746;10.488;2023-05-10T10:04:41;5.28;;;3.20;;
75054;SDS011;63636;44.746;10.488;2023-05-10T10:07:07;6.72;;;3.42;;
75054;SDS011;63636;44.746;10.488;2023-05-10T10:09:33;6.00;;;3.63;;
75054;SDS011;63636;44.746;10.488;2023-05-10T10:11:59;6.20;;;3.53;;
75054;SDS011;63636;44.746;10.488;2023-05-10T10:14:29;6.63;;;3.58;;
75054;SDS011;63636;44.746;10.488;2023-05-10T10:16:54;5.88;;;3.30;;
75054;SDS011;63636;44.746;10.488;2023-05-10T10:19:20;6.40;;;3.58;;
75054;SDS011;63636;44.746;10.488;2023-05-10T10:21:49;6.45;;;3.47;;
75054;SDS011;63636;44.746;10.488;2023-05-10T10:24:15;4.78;;;3.20;;
75054;SDS011;63636;44.746;10.488;2023-05-10T10:26:41;5.38;;;3.30;;
75054;SDS011;63636;44.746;10.488;2023-05-10T10:29:25;5.65;;;3.38;;
75054;SDS011;63636;44.746;10.488;2023-05-10T10:32:06;6.97;;;3.60;;
75054;SDS011;63636;44.746;10.488;2023-05-10T10:34:33;5.23;;;3.27;;
75054;SDS011;63636;44.746;10.488;2023-05-10T10:37:03;5.90;;;3.33;;
75054;SDS011;63636;44.746;10.488;2023-05-10T10:39:29;5.68;;;3.40;;
75054;SDS011;63636;44.746;10.488;2023-05-10T10:41:56;6.15;;;3.70;;
75054;SDS011;63636;44.746;10.488;2023-05-10T10:49:50;7.15;;;3.47;;
75054;SDS011;63636;44.746;10.488;2023-05-10T10:52:25;7.00;;;3.30;;
75054;SDS011;63636;44.746;10.488;2023-05-10T10:55:03;5.40;;;3.17;;
75054;SDS011;63636;44.746;10.488;2023-05-10T10:57:31;6.13;;;3.45;;
75054;SDS011;63636;44.746;10.488;2023-05-10T11:00:39;5.60;;;3.40;;
75054;SDS011;63636;44.746;10.488;2023-05-10T11:02:47;6.03;;;3.65;;
75054;SDS011;63636;44.746;10.488;2023-05-10T11:07:55;5.53;;;3.28;;
75054;SDS011;63636;44.746;10.488;2023-05-10T11:10:21;6.50;;;3.33;;
75054;SDS011;63636;44.746;10.488;2023-05-10T11:12:58;6.65;;;3.63;;
75054;SDS011;63636;44.746;10.488;2023-05-10T11:15:32;5.75;;;3.40;;
75054;SDS011;63636;44.746;10.488;2023-05-10T11:17:58;5.40;;;3.47;;
75054;SDS011;63636;44.746;10.488;2023-05-10T11:20:26;5.38;;;3.33;;
75054;SDS011;63636;44.746;10.488;2023-05-10T11:22:58;6.32;;;3.20;;
75054;SDS011;63636;44.746;10.488;2023-05-10T11:25:39;6.30;;;3.10;;
75054;SDS011;63636;44.746;10.488;2023-05-10T11:28:05;6.15;;;3.50;;
75054;SDS011;63636;44.746;10.488;2023-05-10T11:30:31;5.30;;;3.20;;
75054;SDS011;63636;44.746;10.488;2023-05-10T11:32:57;6.50;;;3.40;;
75054;SDS011;63636;44.746;10.488;2023-05-10T11:35:22;5.72;;;3.30;;
75054;SDS011;63636;44.746;10.488;2023-05-10T11:37:48;5.38;;;3.10;;
75054;SDS011;63636;44.746;10.488;2023-05-10T11:40:21;6.05;;;3.45;;
75054;SDS011;63636;44.746;10.488;2023-05-10T11:43:16;6.53;;;3.75;;
75054;SDS011;63636;44.746;10.488;2023-05-10T11:45:42;5.88;;;3.35;;
75054;SDS011;63636;44.746;10.488;2023-05-10T11:48:07;6.82;;;3.13;;
75054;SDS011;63636;44.746;10.488;2023-05-10T11:50:33;5.30;;;3.30;;
75054;SDS011;63636;44.746;10.488;2023-05-10T11:52:59;5.47;;;3.15;;
75054;SDS011;63636;44.746;10.488;2023-05-10T11:55:24;5.13;;;3.20;;
75054;SDS011;63636;44.746;10.488;2023-05-10T11:57:53;6.88;;;3.30;;
75054;SDS011;63636;44.746;10.488;2023-05-10T12:00:19;6.72;;;3.15;;
75054;SDS011;63636;44.746;10.488;2023-05-10T12:02:45;5.72;;;3.42;;
75054;SDS011;63636;44.746;10.488;2023-05-10T12:05:10;5.25;;;3.15;;
75054;SDS011;63636;44.746;10.488;2023-05-10T12:07:36;5.70;;;2.97;;
75054;SDS011;63636;44.746;10.488;2023-05-10T12:10:08;5.22;;;3.05;;
75054;SDS011;63636;44.746;10.488;2023-05-10T12:15:03;4.70;;;3.00;;
75054;SDS011;63636;44.746;10.488;2023-05-10T12:17:29;5.68;;;3.10;;
75054;SDS011;63636;44.746;10.488;2023-05-10T12:19:58;5.53;;;3.15;;
75054;SDS011;63636;44.746;10.488;2023-05-10T12:22:23;4.63;;;3.13;;
75054;SDS011;63636;44.746;10.488;2023-05-10T12:24:50;6.28;;;3.55;;
75054;SDS011;63636;44.746;10.488;2023-05-10T12:27:15;5.95;;;3.63;;
75054;SDS011;63636;44.746;10.488;2023-05-10T12:29:41;5.43;;;3.40;;
75054;SDS011;63636;44.746;10.488;2023-05-10T12:32:09;6.75;;;3.45;;
75054;SDS011;63636;44.746;10.488;2023-05-10T12:34:35;6.05;;;3.13;;
75054;SDS011;63636;44.746;10.488;2023-05-10T12:37:04;6.50;;;3.25;;
75054;SDS011;63636;44.746;10.488;2023-05-10T12:42:04;6.55;;;3.30;;
75054;SDS011;63636;44.746;10.488;2023-05-10T12:44:30;4.93;;;3.10;;
75054;SDS011;63636;44.746;10.488;2023-05-10T12:46:55;6.32;;;3.20;;
75054;SDS011;63636;44.746;10.488;2023-05-10T12:49:21;5.72;;;3.50;;
75054;SDS011;63636;44.746;10.488;2023-05-10T12:51:46;5.60;;;3.13;;
75054;SDS011;63636;44.746;10.488;2023-05-10T12:54:12;5.97;;;3.70;;
75054;SDS011;63636;44.746;10.488;2023-05-10T12:56:37;5.13;;;3.25;;
75054;SDS011;63636;44.746;10.488;2023-05-10T12:59:03;5.78;;;3.45;;
75054;SDS011;63636;44.746;10.488;2023-05-10T13:01:29;5.50;;;3.47;;
75054;SDS011;63636;44.746;10.488;2023-05-10T13:03:54;6.35;;;3.50;;
75054;SDS011;63636;44.746;10.488;2023-05-10T13:06:20;5.10;;;3.00;;
75054;SDS011;63636;44.746;10.488;2023-05-10T13:08:45;5.47;;;3.20;;
75054;SDS011;63636;44.746;10.488;2023-05-10T13:11:11;5.75;;;2.97;;
75054;SDS011;63636;44.746;10.488;2023-05-10T13:13:37;5.20;;;2.97;;
75054;SDS011;63636;44.746;10.488;2023-05-10T13:16:02;6.60;;;3.50;;
75054;SDS011;63636;44.746;10.488;2023-05-10T13:18:28;5.20;;;3.20;;
75054;SDS011;63636;44.746;10.488;2023-05-10T13:20:53;6.38;;;3.10;;
75054;SDS011;63636;44.746;10.488;2023-05-10T13:23:19;5.72;;;3.22;;
75054;SDS011;63636;44.746;10.488;2023-05-10T13:25:45;5.28;;;3.15;;
75054;SDS011;63636;44.746;10.488;2023-05-10T13:28:10;5.90;;;3.10;;
75054;SDS011;63636;44.746;10.488;2023-05-10T13:30:36;6.78;;;3.22;;
75054;SDS011;63636;44.746;10.488;2023-05-10T13:33:01;6.05;;;3.95;;
75054;SDS011;63636;44.746;10.488;2023-05-10T13:35:27;4.65;;;3.00;;
75054;SDS011;63636;44.746;10.488;2023-05-10T13:37:52;5.72;;;3.58;;
75054;SDS011;63636;44.746;10.488;2023-05-10T13:40:18;5.00;;;3.13;;
75054;SDS011;63636;44.746;10.488;2023-05-10T13:42:44;5.60;;;3.38;;
75054;SDS011;63636;44.746;10.488;2023-05-10T13:45:09;5.15;;;3.20;;
75054;SDS011;63636;44.746;10.488;2023-05-10T13:47:37;5.57;;;3.28;;
75054;SDS011;63636;44.746;10.488;2023-05-10T13:50:02;4.70;;;3.17;;
75054;SDS011;63636;44.746;10.488;2023-05-10T13:52:29;5.60;;;3.10;;
75054;SDS011;63636;44.746;10.488;2023-05-10T13:54:54;5.45;;;3.20;;
75054;SDS011;63636;44.746;10.488;2023-05-10T13:57:20;6.35;;;3.40;;
75054;SDS011;63636;44.746;10.488;2023-05-10T13:59:46;5.30;;;3.33;;
75054;SDS011;63636;44.746;10.488;2023-05-10T14:02:12;5.60;;;3.35;;
75054;SDS011;63636;44.746;10.488;2023-05-10T14:04:38;5.57;;;3.53;;
75054;SDS011;63636;44.746;10.488;2023-05-10T14:07:04;5.00;;;3.10;;
75054;SDS011;63636;44.746;10.488;2023-05-10T14:09:29;5.90;;;3.13;;
75054;SDS011;63636;44.746;10.488;2023-05-10T14:11:55;5.15;;;3.00;;
75054;SDS011;63636;44.746;10.488;2023-05-10T14:14:21;5.55;;;3.10;;
75054;SDS011;63636;44.746;10.488;2023-05-10T14:16:46;4.15;;;2.90;;
75054;SDS011;63636;44.746;10.488;2023-05-10T14:19:12;5.53;;;3.00;;
75054;SDS011;63636;44.746;10.488;2023-05-10T14:21:38;4.70;;;2.72;;
75054;SDS011;63636;44.746;10.488;2023-05-10T14:24:03;4.53;;;2.80;;
75054;SDS011;63636;44.746;10.488;2023-05-10T14:26:29;4.93;;;3.10;;
75054;SDS011;63636;44.746;10.488;2023-05-10T14:28:55;5.00;;;3.03;;
75054;SDS011;63636;44.746;10.488;2023-05-10T14:31:20;5.43;;;3.25;;
75054;SDS011;63636;44.746;10.488;2023-05-10T14:33:46;7.55;;;3.45;;
75054;SDS011;63636;44.746;10.488;2023-05-10T14:36:12;5.38;;;3.40;;
75054;SDS011;63636;44.746;10.488;2023-05-10T14:38:38;5.35;;;3.33;;
75054;SDS011;63636;44.746;10.488;2023-05-10T14:41:04;5.75;;;3.60;;
75054;SDS011;63636;44.746;10.488;2023-05-10T14:43:29;5.47;;;3.50;;
75054;SDS011;63636;44.746;10.488;2023-05-10T14:45:55;5.35;;;3.30;;
75054;SDS011;63636;44.746;10.488;2023-05-10T14:48:21;5.68;;;3.80;;
75054;SDS011;63636;44.746;10.488;2023-05-10T14:50:46;6.80;;;3.70;;
75054;SDS011;63636;44.746;10.488;2023-05-10T14:53:13;5.90;;;3.83;;
75054;SDS011;63636;44.746;10.488;2023-05-10T14:55:39;6.18;;;3.60;;
75054;SDS011;63636;44.746;10.488;2023-05-10T14:58:04;6.72;;;3.90;;
75054;SDS011;63636;44.746;10.488;2023-05-10T15:00:30;7.38;;;4.13;;
75054;SDS011;63636;44.746;10.488;2023-05-10T15:02:55;5.85;;;3.80;;